createdAt,value
2022-10-11T00:01:53.554Z,16.23
2022-10-11T00:03:56.387Z,13.10
2022-10-11T00:05:59.256Z,15.20
2022-10-11T00:08:05.493Z,15.80
2022-10-11T00:10:10.093Z,20.90
2022-10-11T00:12:13.166Z,15.10
2022-10-11T00:14:16.114Z,21.57
2022-10-11T00:16:19.042Z,11.17
2022-10-11T00:18:22.023Z,17.90
2022-10-11T00:20:26.475Z,11.30
2022-10-11T00:22:29.383Z,14.50
2022-10-11T00:24:33.693Z,12.97
2022-10-11T00:26:36.562Z,15.47
2022-10-11T00:28:39.968Z,15.17
2022-10-11T00:30:44.214Z,12.83
2022-10-11T00:32:47.013Z,15.47
2022-10-11T00:34:49.894Z,22.07
2022-10-11T00:36:52.802Z,14.67
2022-10-11T00:38:55.672Z,15.83
2022-10-11T00:41:00.363Z,18.90
2022-10-11T00:43:03.343Z,16.50
2022-10-11T00:45:43.535Z,15.47
2022-10-11T00:47:46.416Z,13.07
2022-10-11T00:49:55.037Z,17.33
2022-10-11T00:52:02.197Z,12.13
2022-10-11T00:54:07.065Z,11.80
2022-10-11T00:56:24.727Z,15.60
2022-10-11T00:58:27.773Z,14.83
2022-10-11T01:00:30.628Z,14.80
2022-10-11T01:02:33.448Z,14.17
2022-10-11T01:04:36.532Z,15.27
2022-10-11T01:06:39.662Z,13.63
2022-10-11T01:08:42.773Z,10.40
2022-10-11T01:10:45.933Z,13.37
2022-10-11T01:13:02.180Z,9.83
2022-10-11T01:15:15.936Z,11.73
2022-10-11T01:17:26.669Z,15.13
2022-10-11T01:19:48.572Z,14.03
2022-10-11T01:21:58.626Z,12.40
2022-10-11T01:24:31.112Z,16.50
2022-10-11T01:27:19.036Z,10.93
2022-10-11T01:29:32.464Z,9.63
2022-10-11T01:31:41.161Z,15.63
2022-10-11T01:33:50.954Z,13.43
2022-10-11T01:36:02.255Z,12.07
2022-10-11T01:38:13.444Z,12.77
2022-10-11T01:40:23.427Z,13.87
2022-10-11T01:42:29.040Z,12.90
2022-10-11T01:44:32.962Z,17.37
2022-10-11T01:46:37.974Z,18.43
2022-10-11T01:48:51.985Z,10.80
2022-10-11T01:50:56.871Z,13.20
2022-10-11T01:53:11.168Z,12.60
2022-10-11T01:55:24.497Z,11.17
2022-10-11T01:57:48.802Z,13.03
2022-10-11T02:00:00.370Z,15.90
2022-10-11T02:02:16.366Z,10.57
2022-10-11T02:04:28.400Z,13.73
2022-10-11T02:06:36.641Z,13.63
2022-10-11T02:08:49.889Z,8.57
2022-10-11T02:11:01.577Z,9.57
2022-10-11T02:13:09.537Z,11.60
2022-10-11T02:15:15.409Z,8.97
2022-10-11T02:17:22.955Z,9.33
2022-10-11T02:19:30.674Z,15.47
2022-10-11T02:21:36.508Z,16.10
2022-10-11T02:23:44.973Z,11.97
2022-10-11T02:25:50.928Z,9.77
2022-10-11T02:27:57.396Z,12.97
2022-10-11T02:30:02.618Z,8.70
2022-10-11T02:32:07.207Z,15.03
2022-10-11T02:34:16.189Z,9.70
2022-10-11T02:36:25.854Z,8.43
2022-10-11T02:38:34.586Z,11.37
2022-10-11T02:40:41.425Z,7.27
2022-10-11T02:42:47.870Z,11.27
2022-10-11T02:45:00.634Z,10.07
2022-10-11T02:47:04.899Z,7.20
2022-10-11T02:49:09.511Z,11.33
2022-10-11T02:51:15.813Z,10.70
2022-10-11T02:53:18.779Z,6.50
2022-10-11T02:55:21.943Z,10.77
2022-10-11T02:57:24.852Z,12.63
2022-10-11T02:59:27.665Z,10.30
2022-10-11T03:01:30.532Z,7.50
2022-10-11T03:03:33.402Z,11.63
2022-10-11T03:05:40.526Z,9.63
2022-10-11T03:07:44.794Z,14.77
2022-10-11T03:09:47.769Z,6.93
2022-10-11T03:11:50.601Z,15.03
2022-10-11T03:13:53.552Z,12.27
2022-10-11T03:16:03.135Z,11.87
2022-10-11T03:18:06.471Z,11.90
2022-10-11T03:20:10.184Z,15.17
2022-10-11T03:22:13.057Z,12.77
2022-10-11T03:24:17.276Z,13.57
2022-10-11T03:26:20.082Z,8.30
2022-10-11T03:28:23.237Z,10.83
2022-10-11T03:30:26.169Z,13.77
2022-10-11T03:32:29.539Z,14.83
2022-10-11T03:34:32.374Z,8.00
2022-10-11T03:36:35.208Z,13.53
2022-10-11T03:38:38.021Z,13.20
2022-10-11T03:40:42.745Z,13.53
2022-10-11T03:42:45.585Z,14.37
2022-10-11T03:44:49.509Z,11.53
2022-10-11T03:46:52.589Z,12.63
2022-10-11T03:48:55.487Z,12.23
2022-10-11T03:50:58.322Z,16.40
2022-10-11T03:53:01.359Z,16.37
2022-10-11T03:55:04.539Z,15.87
2022-10-11T03:57:08.810Z,12.50
2022-10-11T03:59:11.667Z,23.03
2022-10-11T04:01:14.752Z,21.17
2022-10-11T04:03:17.884Z,17.67
2022-10-11T04:05:20.745Z,12.80
2022-10-11T04:07:23.636Z,22.20
2022-10-11T04:09:26.522Z,15.37
2022-10-11T04:11:29.639Z,19.10
2022-10-11T04:13:33.874Z,15.60
2022-10-11T04:15:38.103Z,23.03
2022-10-11T04:17:41.246Z,13.23
2022-10-11T04:19:47.344Z,9.20
2022-10-11T04:21:50.195Z,16.17
2022-10-11T04:23:52.995Z,16.80
2022-10-11T04:25:55.812Z,15.33
2022-10-11T04:27:58.672Z,15.43
2022-10-11T04:30:02.922Z,18.03
2022-10-11T04:32:05.892Z,16.13
2022-10-11T04:34:08.756Z,16.10
2022-10-11T04:36:11.530Z,16.03
2022-10-11T04:38:14.413Z,15.47
2022-10-11T04:40:19.578Z,16.27
2022-10-11T04:42:22.512Z,14.37
2022-10-11T04:44:25.360Z,16.27
2022-10-11T04:46:29.753Z,18.80
2022-10-11T04:48:35.576Z,18.40
2022-10-11T04:50:38.542Z,14.00
2022-10-11T04:52:41.395Z,17.20
2022-10-11T04:54:44.302Z,24.57
2022-10-11T04:56:47.179Z,14.73
2022-10-11T04:58:54.026Z,16.47
2022-10-11T05:00:57.305Z,21.03
2022-10-11T05:03:01.754Z,21.93
2022-10-11T05:05:05.205Z,20.30
2022-10-11T05:07:08.139Z,19.30
2022-10-11T05:09:10.974Z,17.07
2022-10-11T05:11:16.329Z,11.73
2022-10-11T05:13:19.220Z,17.27
2022-10-11T05:15:22.066Z,17.67
2022-10-11T05:17:24.922Z,17.33
2022-10-11T05:19:29.236Z,16.07
2022-10-11T05:21:32.379Z,20.50
2022-10-11T05:23:37.094Z,17.83
2022-10-11T05:25:40.119Z,15.70
2022-10-11T05:27:42.979Z,14.30
2022-10-11T05:29:45.836Z,17.33
2022-10-11T05:31:48.663Z,13.93
2022-10-11T05:33:51.522Z,14.77
2022-10-11T05:35:55.761Z,13.33
2022-10-11T05:37:58.677Z,13.33
2022-10-11T05:40:01.707Z,17.77
2022-10-11T05:42:09.623Z,13.37
2022-10-11T05:44:12.868Z,13.10
2022-10-11T05:46:15.922Z,12.73
2022-10-11T05:48:18.775Z,14.63
2022-10-11T05:50:24.276Z,18.50
2022-10-11T05:52:28.814Z,23.00
2022-10-11T05:54:32.327Z,14.50
2022-10-11T05:56:35.464Z,20.47
2022-10-11T05:58:41.173Z,17.40
2022-10-11T06:00:44.000Z,19.37
2022-10-11T06:02:46.856Z,16.63
2022-10-11T06:04:49.654Z,18.03
2022-10-11T06:06:52.508Z,19.30
2022-10-11T06:08:56.700Z,19.37
2022-10-11T06:10:59.548Z,20.67
2022-10-11T06:13:02.747Z,22.30
2022-10-11T06:15:07.539Z,25.87
2022-10-11T06:17:10.422Z,15.13
2022-10-11T06:19:13.265Z,19.13
2022-10-11T06:21:16.300Z,17.40
2022-10-11T06:23:19.147Z,21.90
2022-10-11T06:25:23.314Z,18.97
2022-10-11T06:27:26.563Z,20.97
2022-10-11T06:29:29.449Z,20.00
2022-10-11T06:31:32.487Z,20.40
2022-10-11T06:33:35.672Z,22.80
2022-10-11T06:35:38.665Z,20.53
2022-10-11T06:37:41.773Z,20.27
2022-10-11T06:39:44.784Z,20.57
2022-10-11T06:41:49.120Z,22.23
2022-10-11T06:43:52.476Z,17.97
2022-10-11T06:46:00.404Z,22.47
2022-10-11T06:48:05.591Z,19.33
2022-10-11T06:50:09.216Z,18.23
2022-10-11T06:52:12.042Z,19.53
2022-10-11T06:54:14.889Z,16.80
2022-10-11T06:56:17.773Z,24.37
2022-10-11T06:58:22.054Z,17.80
2022-10-11T07:00:24.856Z,17.13
2022-10-11T07:02:27.705Z,19.33
2022-10-11T07:04:30.657Z,16.60
2022-10-11T07:06:38.437Z,15.30
2022-10-11T07:08:41.389Z,12.17
2022-10-11T07:10:44.313Z,18.50
2022-10-11T07:12:47.145Z,23.27
2022-10-11T07:14:51.354Z,16.63
2022-10-11T07:16:54.230Z,14.30
2022-10-11T07:19:01.399Z,20.90
2022-10-11T07:21:06.568Z,16.77
2022-10-11T07:23:09.374Z,15.93
2022-10-11T07:25:12.397Z,15.60
2022-10-11T07:27:15.393Z,12.00
2022-10-11T07:29:18.548Z,13.47
2022-10-11T07:31:25.084Z,20.07
2022-10-11T07:33:27.925Z,16.17
2022-10-11T07:35:30.793Z,15.43
2022-10-11T07:37:34.851Z,18.57
2022-10-11T07:39:37.995Z,18.97
2022-10-11T07:41:45.626Z,18.53
2022-10-11T07:43:50.879Z,11.97
2022-10-11T07:45:55.564Z,14.40
2022-10-11T07:47:59.841Z,20.53
2022-10-11T07:50:02.869Z,14.23
2022-10-11T07:52:06.002Z,12.60
2022-10-11T07:54:09.061Z,14.83
2022-10-11T07:56:13.728Z,27.57
2022-10-11T07:58:16.599Z,17.53
2022-10-11T08:00:19.807Z,19.33
2022-10-11T08:02:22.713Z,17.13
2022-10-11T08:04:27.197Z,17.13
2022-10-11T08:06:32.654Z,16.23
2022-10-11T08:08:35.868Z,24.07
2022-10-11T08:10:40.021Z,19.93
2022-10-11T08:12:42.982Z,16.57
2022-10-11T08:14:45.794Z,16.20
2022-10-11T08:16:49.217Z,14.77
2022-10-11T08:18:52.070Z,11.70
2022-10-11T08:20:56.314Z,17.63
2022-10-11T08:22:59.094Z,16.27
2022-10-11T08:25:01.944Z,16.87
2022-10-11T08:27:04.911Z,13.50
2022-10-11T08:29:07.895Z,13.87
2022-10-11T08:31:13.859Z,14.83
2022-10-11T08:33:17.292Z,14.47
2022-10-11T08:35:20.158Z,15.93
2022-10-11T08:37:24.372Z,18.30
2022-10-11T08:39:27.264Z,17.33
2022-10-11T08:41:34.716Z,14.33
2022-10-11T08:43:45.630Z,13.60
2022-10-11T08:45:52.020Z,14.03
2022-10-11T08:48:04.999Z,18.53
2022-10-11T08:50:16.582Z,15.60
2022-10-11T08:52:25.449Z,14.27
2022-10-11T08:54:35.711Z,15.60
2022-10-11T08:56:39.962Z,16.83
2022-10-11T08:58:47.901Z,18.80
2022-10-11T09:00:55.119Z,14.30
2022-10-11T09:03:09.230Z,16.50
2022-10-11T09:05:16.292Z,15.27
2022-10-11T09:07:33.384Z,15.23
2022-10-11T09:10:00.717Z,16.17
2022-10-11T09:12:13.671Z,16.67
2022-10-11T09:14:40.295Z,13.33
2022-10-11T09:16:56.598Z,13.90
2022-10-11T09:19:30.585Z,18.97
2022-10-11T09:21:42.005Z,13.90
2022-10-11T09:24:07.823Z,12.87
2022-10-11T09:26:14.704Z,14.07
2022-10-11T09:28:28.742Z,16.43
2022-10-11T09:30:32.063Z,14.97
2022-10-11T09:32:39.256Z,17.43
2022-10-11T09:34:42.128Z,17.80
2022-10-11T09:36:54.274Z,18.67
2022-10-11T09:39:08.413Z,14.50
2022-10-11T09:41:17.968Z,16.63
2022-10-11T09:43:20.980Z,17.93
2022-10-11T09:45:23.964Z,13.83
2022-10-11T09:47:29.424Z,15.23
2022-10-11T09:49:39.254Z,8.87
2022-10-11T09:51:45.661Z,15.07
2022-10-11T09:54:01.760Z,16.40
2022-10-11T09:56:06.160Z,14.63
2022-10-11T09:58:28.875Z,15.30
2022-10-11T10:00:33.717Z,14.77
2022-10-11T10:02:41.731Z,16.73
2022-10-11T10:05:14.620Z,13.67
2022-10-11T10:07:17.642Z,16.63
2022-10-11T10:09:27.260Z,14.63
2022-10-11T10:11:37.665Z,14.63
2022-10-11T10:13:46.133Z,16.07
2022-10-11T10:15:51.840Z,13.33
2022-10-11T10:17:54.881Z,14.10
2022-10-11T10:20:00.380Z,11.10
2022-10-11T10:22:03.259Z,13.53
2022-10-11T10:24:09.711Z,13.53
2022-10-11T10:26:17.439Z,12.93
2022-10-11T10:28:23.866Z,12.03
2022-10-11T10:30:29.768Z,16.67
2022-10-11T10:32:43.786Z,19.40
2022-10-11T10:34:57.848Z,24.90
2022-10-11T10:37:07.434Z,17.67
2022-10-11T10:39:22.836Z,16.77
2022-10-11T10:41:29.106Z,15.63
2022-10-11T10:43:35.504Z,12.93
2022-10-11T10:45:45.300Z,14.73
2022-10-11T10:48:05.016Z,12.90
2022-10-11T10:50:17.070Z,20.47
2022-10-11T10:52:46.231Z,12.23
2022-10-11T10:54:53.648Z,11.47
2022-10-11T10:57:01.770Z,11.30
2022-10-11T10:59:20.500Z,10.97
2022-10-11T11:01:27.569Z,11.10
2022-10-11T11:03:36.826Z,15.80
2022-10-11T11:05:48.805Z,17.50
2022-10-11T11:07:58.585Z,14.27
2022-10-11T11:10:05.730Z,16.97
2022-10-11T11:12:22.769Z,15.27
2022-10-11T11:14:37.214Z,19.07
2022-10-11T11:16:46.067Z,14.00
2022-10-11T11:18:57.589Z,16.60
2022-10-11T11:21:16.251Z,11.60
2022-10-11T11:23:29.050Z,12.87
2022-10-11T11:25:44.882Z,12.57
2022-10-11T11:28:11.466Z,14.77
2022-10-11T11:30:20.917Z,14.13
2022-10-11T11:32:33.763Z,14.60
2022-10-11T11:34:42.167Z,9.00
2022-10-11T11:36:47.982Z,8.73
2022-10-11T11:38:56.653Z,11.10
2022-10-11T11:41:02.757Z,12.97
2022-10-11T11:43:13.496Z,22.70
2022-10-11T11:45:22.207Z,16.20
2022-10-11T11:47:31.267Z,11.77
2022-10-11T11:49:37.907Z,16.50
2022-10-11T11:51:45.300Z,28.53
2022-10-11T11:53:54.484Z,16.97
2022-10-11T11:56:01.404Z,11.57
2022-10-11T11:58:18.616Z,12.10
2022-10-11T12:00:24.264Z,11.33
2022-10-11T12:02:38.863Z,12.13
2022-10-11T12:04:44.640Z,13.63
2022-10-11T12:07:15.484Z,12.37
2022-10-11T12:09:23.002Z,12.00
2022-10-11T12:11:34.520Z,12.40
2022-10-11T12:13:42.416Z,11.80
2022-10-11T12:15:59.931Z,10.80
2022-10-11T12:18:06.919Z,14.63
2022-10-11T12:20:17.378Z,9.63
2022-10-11T12:22:39.119Z,8.00
2022-10-11T12:24:55.219Z,10.50
2022-10-11T12:26:59.599Z,8.47
2022-10-11T12:29:44.241Z,9.43
2022-10-11T12:31:48.717Z,15.17
2022-10-11T12:34:21.676Z,12.10
2022-10-11T12:36:36.278Z,9.53
2022-10-11T12:38:41.875Z,11.00
2022-10-11T12:40:47.205Z,12.57
2022-10-11T12:43:12.822Z,13.77
2022-10-11T12:45:34.576Z,12.50
2022-10-11T12:47:46.198Z,12.57
2022-10-11T12:50:02.518Z,10.07
2022-10-11T12:52:22.113Z,10.47
2022-10-11T12:54:49.020Z,11.37
2022-10-11T12:57:11.038Z,9.30
2022-10-11T12:59:18.983Z,10.27
2022-10-11T13:01:35.022Z,9.37
2022-10-11T13:03:41.877Z,9.33
2022-10-11T13:05:49.743Z,13.23
2022-10-11T13:07:58.628Z,8.43
2022-10-11T13:10:01.608Z,11.20
2022-10-11T13:12:07.386Z,7.63
2022-10-11T13:14:16.035Z,6.23
2022-10-11T13:16:21.698Z,7.53
2022-10-11T13:18:27.038Z,12.47
2022-10-11T13:20:32.561Z,10.63
2022-10-11T13:22:39.078Z,6.83
2022-10-11T13:24:42.518Z,9.57
2022-10-11T13:26:47.558Z,14.70
2022-10-11T13:28:50.686Z,6.70
2022-10-11T13:30:57.890Z,9.30
2022-10-11T13:33:02.091Z,10.47
2022-10-11T13:35:15.098Z,6.07
2022-10-11T13:37:21.329Z,7.67
2022-10-11T13:39:31.266Z,9.73
2022-10-11T13:41:38.442Z,7.27
2022-10-11T13:43:41.783Z,9.37
2022-10-11T13:45:44.809Z,8.57
2022-10-11T13:47:48.915Z,12.87
2022-10-11T13:50:04.327Z,10.07
2022-10-11T13:52:22.653Z,8.87
2022-10-11T13:54:25.490Z,14.87
2022-10-11T13:56:30.570Z,8.90
2022-10-11T13:58:38.746Z,5.67
2022-10-11T14:00:52.545Z,6.73
2022-10-11T14:02:59.774Z,6.30
2022-10-11T14:05:03.071Z,6.67
2022-10-11T14:07:05.985Z,7.30
2022-10-11T14:09:18.386Z,4.37
2022-10-11T14:11:34.939Z,8.97
2022-10-11T14:13:39.965Z,8.40
2022-10-11T14:15:42.771Z,9.00
2022-10-11T14:17:46.995Z,5.17
2022-10-11T14:20:11.358Z,5.83
2022-10-11T14:22:16.473Z,10.93
2022-10-11T14:24:22.856Z,7.77
2022-10-11T14:26:27.448Z,9.37
2022-10-11T14:28:30.381Z,6.83
2022-10-11T14:30:33.318Z,7.13
2022-10-11T14:32:37.384Z,9.23
2022-10-11T14:34:40.424Z,9.43
2022-10-11T14:36:43.253Z,8.60
2022-10-11T14:38:46.090Z,7.93
2022-10-11T14:40:50.746Z,6.57
2022-10-11T14:42:53.846Z,8.07
2022-10-11T14:44:56.697Z,6.70
2022-10-11T14:46:59.995Z,10.17
2022-10-11T14:49:03.171Z,7.53
2022-10-11T14:51:07.146Z,12.00
2022-10-11T14:53:11.468Z,7.87
2022-10-11T14:55:14.406Z,9.77
2022-10-11T14:57:18.599Z,7.77
2022-10-11T14:59:23.168Z,9.27
2022-10-11T15:01:26.165Z,7.27
2022-10-11T15:03:28.999Z,7.97
2022-10-11T15:05:34.170Z,9.60
2022-10-11T15:07:37.318Z,13.27
2022-10-11T15:09:40.118Z,7.00
2022-10-11T15:11:42.930Z,10.87
2022-10-11T15:13:47.401Z,8.83
2022-10-11T15:15:50.582Z,7.63
2022-10-11T15:17:55.533Z,8.00
2022-10-11T15:19:58.485Z,11.77
2022-10-11T15:22:02.303Z,10.93
2022-10-11T15:24:05.382Z,8.10
2022-10-11T15:26:08.711Z,6.07
2022-10-11T15:28:20.798Z,8.13
2022-10-11T15:30:26.796Z,8.97
2022-10-11T15:32:29.597Z,5.90
2022-10-11T15:34:32.458Z,5.33
2022-10-11T15:36:35.325Z,4.67
2022-10-11T15:38:38.178Z,9.30
2022-10-11T15:40:41.531Z,9.37
2022-10-11T15:42:44.454Z,5.60
2022-10-11T15:44:47.365Z,8.73
2022-10-11T15:46:51.785Z,6.20
2022-10-11T15:48:54.594Z,6.47
2022-10-11T15:50:58.666Z,5.43
2022-10-11T15:53:02.756Z,5.30
2022-10-11T15:55:06.122Z,6.70
2022-10-11T15:57:08.963Z,6.57
2022-10-11T15:59:12.673Z,11.80
2022-10-11T16:01:17.278Z,10.77
2022-10-11T16:03:23.298Z,9.67
2022-10-11T16:05:28.728Z,6.43
2022-10-11T16:07:31.589Z,8.80
2022-10-11T16:09:34.816Z,10.23
2022-10-11T16:11:37.723Z,7.23
2022-10-11T16:13:40.638Z,6.77
2022-10-11T16:15:44.337Z,8.87
2022-10-11T16:17:47.235Z,6.90
2022-10-11T16:19:51.535Z,8.33
2022-10-11T16:21:54.415Z,6.07
2022-10-11T16:23:57.508Z,8.73
2022-10-11T16:26:02.264Z,13.60
2022-10-11T16:28:07.854Z,10.23
2022-10-11T16:30:12.718Z,10.93
2022-10-11T16:32:15.578Z,7.27
2022-10-11T16:34:18.407Z,8.23
2022-10-11T16:36:35.822Z,6.70
2022-10-11T16:38:38.862Z,8.50
2022-10-11T16:40:43.238Z,8.47
2022-10-11T16:42:46.369Z,10.37
2022-10-11T16:44:49.191Z,8.43
2022-10-11T16:46:52.854Z,11.30
2022-10-11T16:48:56.450Z,13.57
2022-10-11T16:51:06.677Z,10.67
2022-10-11T16:53:10.878Z,8.70
2022-10-11T16:55:13.679Z,10.80
2022-10-11T16:57:18.862Z,10.57
2022-10-11T16:59:21.943Z,8.50
2022-10-11T17:01:24.835Z,10.20
2022-10-11T17:03:27.927Z,12.37
2022-10-11T17:05:33.818Z,10.37
2022-10-11T17:07:36.879Z,8.87
2022-10-11T17:09:44.161Z,8.37
2022-10-11T17:11:47.371Z,10.47
2022-10-11T17:13:51.507Z,10.47
2022-10-11T17:15:54.431Z,8.27
2022-10-11T17:17:57.279Z,10.50
2022-10-11T17:20:02.253Z,9.67
2022-10-11T17:22:05.293Z,8.73
2022-10-11T17:24:08.920Z,9.67
2022-10-11T17:26:17.275Z,9.23
2022-10-11T17:28:20.377Z,8.30
2022-10-11T17:30:23.499Z,9.43
2022-10-11T17:32:26.359Z,8.50
2022-10-11T17:34:29.435Z,8.93
2022-10-11T17:36:34.951Z,9.03
2022-10-11T17:38:37.907Z,8.60
2022-10-11T17:40:40.826Z,9.10
2022-10-11T17:42:45.005Z,8.47
2022-10-11T17:44:50.522Z,7.13
2022-10-11T17:46:53.396Z,7.27
2022-10-11T17:48:56.237Z,9.27
2022-10-11T17:50:59.488Z,9.07
2022-10-11T17:53:02.538Z,6.27
2022-10-11T17:55:06.040Z,10.17
2022-10-11T17:57:08.958Z,8.37
2022-10-11T17:59:18.458Z,11.27
2022-10-11T18:01:24.623Z,9.57
2022-10-11T18:03:27.717Z,9.13
2022-10-11T18:05:30.563Z,7.77
2022-10-11T18:07:33.453Z,7.27
2022-10-11T18:09:36.915Z,11.50
2022-10-11T18:11:39.846Z,10.67
2022-10-11T18:13:46.228Z,17.53
2022-10-11T18:15:53.598Z,12.67
2022-10-11T18:17:57.854Z,21.30
2022-10-11T18:20:00.788Z,25.83
2022-10-11T18:22:07.000Z,20.33
2022-10-11T18:24:14.991Z,19.43
2022-10-11T18:26:20.677Z,17.50
2022-10-11T18:28:24.012Z,12.03
2022-10-11T18:30:27.298Z,14.63
2022-10-11T18:32:31.703Z,15.90
2022-10-11T18:34:40.390Z,13.50
2022-10-11T18:36:44.155Z,16.23
2022-10-11T18:38:49.142Z,20.20
2022-10-11T18:40:54.942Z,16.40
2022-10-11T18:42:58.203Z,14.20
2022-10-11T18:45:04.279Z,13.80
2022-10-11T18:47:07.322Z,16.17
2022-10-11T18:49:11.697Z,13.27
2022-10-11T18:51:18.403Z,13.63
2022-10-11T18:53:21.336Z,13.80
2022-10-11T18:55:24.277Z,8.80
2022-10-11T18:57:27.456Z,10.63
2022-10-11T18:59:30.413Z,9.40
2022-10-11T19:01:35.574Z,8.60
2022-10-11T19:03:39.199Z,9.17
2022-10-11T19:05:43.456Z,9.57
2022-10-11T19:07:46.440Z,15.20
2022-10-11T19:09:49.697Z,9.57
2022-10-11T19:11:54.349Z,7.63
2022-10-11T19:13:58.764Z,9.37
2022-10-11T19:16:07.506Z,11.13
2022-10-11T19:18:13.437Z,7.57
2022-10-11T19:20:17.384Z,9.23
2022-10-11T19:22:21.618Z,80.00
2022-10-11T19:24:26.835Z,40.80
2022-10-11T19:26:33.473Z,28.93
2022-10-11T19:28:36.546Z,20.63
2022-10-11T19:30:39.626Z,29.07
2022-10-11T19:32:42.570Z,41.20
2022-10-11T19:34:45.394Z,26.47
2022-10-11T19:36:50.296Z,31.63
2022-10-11T19:38:56.861Z,34.07
2022-10-11T19:41:01.706Z,25.00
2022-10-11T19:43:04.668Z,22.17
2022-10-11T19:45:08.873Z,21.53
2022-10-11T19:47:11.807Z,32.73
2022-10-11T19:49:17.602Z,36.77
2022-10-11T19:51:22.934Z,34.17
2022-10-11T19:53:25.917Z,25.53
2022-10-11T19:55:30.584Z,32.57
2022-10-11T19:57:33.829Z,29.20
2022-10-11T19:59:36.918Z,45.97
2022-10-11T20:01:40.855Z,40.07
2022-10-11T20:03:44.660Z,39.33
2022-10-11T20:05:47.451Z,35.10
2022-10-11T20:07:50.455Z,26.37
2022-10-11T20:09:53.432Z,24.70
2022-10-11T20:11:58.134Z,23.63
2022-10-11T20:14:01.090Z,22.57
2022-10-11T20:16:06.397Z,18.33
2022-10-11T20:18:09.305Z,18.63
2022-10-11T20:20:12.382Z,20.70
2022-10-11T20:22:15.284Z,19.33
2022-10-11T20:24:18.090Z,18.40
2022-10-11T20:26:22.411Z,20.40
2022-10-11T20:28:27.033Z,18.00
2022-10-11T20:30:29.976Z,17.47
2022-10-11T20:32:32.872Z,14.30
2022-10-11T20:34:39.411Z,15.97
2022-10-11T20:36:46.862Z,12.53
2022-10-11T20:38:52.906Z,17.13
2022-10-11T20:40:55.836Z,21.40
2022-10-11T20:42:58.851Z,12.43
2022-10-11T20:45:03.144Z,11.57
2022-10-11T20:47:06.417Z,13.33
2022-10-11T20:49:11.485Z,14.17
2022-10-11T20:51:14.403Z,13.70
2022-10-11T20:53:17.243Z,12.80
2022-10-11T20:55:20.130Z,13.43
2022-10-11T20:57:22.966Z,15.50
2022-10-11T20:59:25.978Z,11.63
2022-10-11T21:01:32.733Z,10.23
2022-10-11T21:03:36.168Z,11.43
2022-10-11T21:05:39.196Z,9.57
2022-10-11T21:07:42.038Z,12.60
2022-10-11T21:09:45.501Z,7.40
2022-10-11T21:11:51.460Z,9.97
2022-10-11T21:13:56.205Z,9.80
2022-10-11T21:16:04.585Z,8.97
2022-10-11T21:18:09.114Z,7.80
2022-10-11T21:20:12.286Z,7.47
2022-10-11T21:22:15.186Z,12.23
2022-10-11T21:24:18.157Z,6.37
2022-10-11T21:26:22.075Z,10.50
2022-10-11T21:28:24.963Z,8.07
2022-10-11T21:30:27.836Z,7.67
2022-10-11T21:32:30.788Z,9.80
2022-10-11T21:34:34.994Z,6.07
2022-10-11T21:36:37.886Z,10.80
2022-10-11T21:38:41.172Z,7.93
2022-10-11T21:40:47.265Z,7.97
2022-10-11T21:42:50.143Z,9.13
2022-10-11T21:44:53.079Z,8.40
2022-10-11T21:47:07.168Z,10.63
2022-10-11T21:49:10.418Z,12.60
2022-10-11T21:51:22.897Z,18.07
2022-10-11T21:53:25.730Z,10.00
2022-10-11T21:55:29.386Z,11.13
2022-10-11T21:57:32.289Z,9.43
2022-10-11T21:59:35.266Z,10.17
2022-10-11T22:01:38.709Z,10.67
2022-10-11T22:03:41.805Z,9.40
2022-10-11T22:05:45.330Z,12.87
2022-10-11T22:07:49.860Z,10.77
2022-10-11T22:09:52.665Z,8.10
2022-10-11T22:11:55.435Z,9.17
2022-10-11T22:13:58.482Z,6.97
2022-10-11T22:16:03.428Z,7.93
2022-10-11T22:18:06.418Z,8.23
2022-10-11T22:20:10.001Z,5.57
2022-10-11T22:22:12.841Z,8.87
2022-10-11T22:24:17.530Z,7.67
2022-10-11T22:26:22.110Z,9.13
2022-10-11T22:28:25.019Z,7.50
2022-10-11T22:30:27.905Z,7.83
2022-10-11T22:32:30.754Z,67.80
2022-10-11T22:34:34.069Z,42.43
2022-10-11T22:36:36.919Z,13.30
2022-10-11T22:38:41.758Z,12.83
2022-10-11T22:40:45.908Z,9.23
2022-10-11T22:42:49.041Z,7.33
2022-10-11T22:44:51.830Z,8.17
2022-10-11T22:46:54.654Z,13.23
2022-10-11T22:48:57.511Z,8.10
2022-10-11T22:51:00.867Z,10.17
2022-10-11T22:53:03.862Z,11.30
2022-10-11T22:55:07.556Z,8.23
2022-10-11T22:57:11.714Z,6.17
2022-10-11T22:59:14.535Z,50.53
2022-10-11T23:01:17.459Z,14.03
2022-10-11T23:03:20.650Z,8.63
2022-10-11T23:05:23.529Z,9.30
2022-10-11T23:07:26.367Z,8.60
2022-10-11T23:09:30.970Z,8.80
2022-10-11T23:11:33.783Z,9.97
2022-10-11T23:13:38.038Z,9.90
2022-10-11T23:15:41.230Z,9.77
2022-10-11T23:17:44.087Z,6.97
2022-10-11T23:19:46.914Z,6.40
2022-10-11T23:21:49.753Z,11.70
2022-10-11T23:23:53.765Z,13.37
2022-10-11T23:26:05.265Z,7.23
2022-10-11T23:28:08.051Z,7.70
2022-10-11T23:30:14.410Z,8.93
2022-10-11T23:32:17.350Z,7.33
2022-10-11T23:34:20.138Z,11.93
2022-10-11T23:36:24.592Z,8.70
2022-10-11T23:38:27.495Z,7.63
2022-10-11T23:40:30.299Z,8.27
2022-10-11T23:42:34.133Z,8.60
2022-10-11T23:44:36.923Z,7.93
2022-10-11T23:46:41.140Z,8.80
2022-10-11T23:48:43.997Z,13.53
2022-10-11T23:50:47.140Z,12.87
2022-10-11T23:52:49.943Z,9.50
2022-10-11T23:54:52.771Z,8.30
2022-10-11T23:56:55.584Z,11.20
2022-10-11T23:58:58.549Z,5.37
